CheckWX is a tool to help pilots better visualize weather data.  It is not intended as a substitute for an official pre-flight weather briefing.

16:04:07 UTC

KHEF METAR
Manassas Regional / Harry P Davis Field Airport
Washington, Virginia, USA
Current

8 mins ago

KHEF 261556Z 27008KT 10SM CLR 30/21 A3003 RMK AO2 SLP176 T03000211 PNO $
Observed
May-26 @ 15:56 UTC
Wind
  • 270° at 8 KTS
Visibility
10 SM
Flight Rules
VFR
Cloud Levels
  • Clear skies
Temperature
30°C / 86°F
Dewpoint
21°C / 70°F
Heat Index
33°C / 91°F
Humidity
59%
Altimeter
30.03" Hg
Pressure
1016.92 hPa
Previous

1 hour ago

KHEF 261456Z 21004KT 10SM CLR 29/22 A3003 RMK AO2 SLP176 6//// T02890217 58005 PNO $
Observed
May-26 @ 14:56 UTC
Wind
  • 210° at 4 KTS
Visibility
10 SM
Flight Rules
VFR
Cloud Levels
  • Clear skies
Temperature
29°C / 84°F
Dewpoint
22°C / 72°F
Heat Index
32°C / 89°F
Humidity
66%
Altimeter
30.03" Hg
Pressure
1016.92 hPa
Previous

2 hours ago

KHEF 261356Z 00000KT 10SM CLR 27/22 A3004 RMK AO2 SLP181 T02670222 PNO $
Observed
May-26 @ 13:56 UTC
Visibility
10 SM
Flight Rules
VFR
Cloud Levels
  • Clear skies
Temperature
27°C / 81°F
Dewpoint
22°C / 72°F
Heat Index
29°C / 85°F
Humidity
74%
Altimeter
30.04" Hg
Pressure
1017.32 hPa